• Join FlightAware (Why Join?)
  • Login
  • US Flag 
09:24PM EDT


 

Airport Tracker/Info


-or-


 

Live Flight TrackerFlight Track Log ✈ N364PH ✈ 11-Apr-2013 ✈ KSYR - KIAD

Flight Track Log - Related Links

Times and Time Zones

All times are in EDT time to prevent confusion due to time zone crossing. See the N364PH flight status page for this flight to view local times or setup timezone preferences in your user account.

Time Position Orientation Groundspeed Altitude Reporting Facility
EDT Latitude Longitude Course Direction KTS MPH feet Rate Location/Type
05:50AM 43.1075 -76.1319 268° West 123 142 1,200  Level Boston Center
05:51AM 43.1056 -76.1944 268° West 159 183 2,700 1,500 Climbing Boston Center
05:52AM 43.1031 -76.2681 267° West 180 207 4,500 1,680 Climbing Boston Center
05:53AM 43.0825 -76.3208 242° Southwest 177 204 6,200 1,560 Climbing Boston Center
05:55AM 43.0128 -76.3744 209° Southwest 176 203 8,800 1,380 Climbing New York Center
05:56AM 42.9697 -76.4075 209° Southwest 181 208 10,000 600 Climbing New York Center
05:57AM 42.9203 -76.4400 206° Southwest 188 216 10,000 360 Level New York Center
05:58AM 42.8664 -76.4806 209° Southwest 214 246 10,800 960 Climbing New York Center
05:59AM 42.8192 -76.5131 207° Southwest 209 241 12,000 1,020 Climbing New York Center
06:00AM 42.7803 -76.5406 207° Southwest 204 235 12,900 1,020 Climbing New York Center
06:01AM 42.7264 -76.5783 207° Southwest 204 235 14,100 1,080 Climbing New York Center
06:02AM 42.6697 -76.5900 189° South 204 235 15,200 900 Climbing New York Center
06:03AM 42.6069 -76.5986 186° South 216 249 16,000 300 Climbing New York Center
06:04AM 42.5397 -76.6067 185° South 237 273 15,900 -60 Descending New York Center
06:05AM 42.4642 -76.6194 187° South 259 298 15,900  Level New York Center
06:06AM 42.3889 -76.6269 184° South 271 312 15,900  Level New York Center
06:07AM 42.3156 -76.6372 186° South 276 318 15,900  Level New York Center
06:08AM 42.2336 -76.6522 188° South 276 318 15,900  Level New York Center
06:09AM 42.1603 -76.6625 186° South 276 318 15,900  Level New York Center
06:10AM 42.0892 -76.6731 186° South 276 318 15,900  Level New York Center
06:11AM 42.0156 -76.6831 186° South 276 318 15,900  Level New York Center
06:12AM 41.9422 -76.6933 186° South 276 318 15,900  Level New York Center
06:13AM 41.8708 -76.7036 186° South 270 311 15,900  Level New York Center
06:14AM 41.7997 -76.7111 184° South 270 311 15,900  Level New York Center
06:15AM 41.7264 -76.7214 186° South 270 311 16,000  Climbing New York Center
06:16AM 41.6550 -76.7344 188° South 270 311 16,000  Level New York Center
06:17AM 41.5814 -76.7444 186° South 270 311 16,000  Level New York Center
06:18AM 41.5083 -76.7519 184° South 270 311 16,000  Level New York Center
06:19AM 41.4347 -76.7647 187° South 270 311 16,000  Level New York Center
06:20AM 41.3633 -76.7750 186° South 270 311 16,000  Level New York Center
06:21AM 41.2983 -76.7831 185° South 270 311 16,000  Level New York Center
06:22AM 41.2289 -76.7989 190° South 265 305 16,000  Level New York Center
06:23AM 41.1594 -76.8119 188° South 260 299 16,000  Level New York Center
06:24AM 41.0878 -76.8275 189° South 260 299 16,000  Level New York Center
06:25AM 41.0183 -76.8406 188° South 260 299 16,000  Level New York Center
06:26AM 40.9406 -76.8558 188° South 260 299 16,000  Level New York Center
06:27AM 40.8794 -76.8667 188° South 254 292 16,000  Level New York Center
06:28AM 40.7994 -76.8817 188° South 259 298 16,000  Level New York Center
06:29AM 40.7381 -76.9008 193° South 259 298 16,000 -60 Level New York Center
06:30AM 40.6639 -76.9242 193° South 259 298 15,900 -60 Descending New York Center
06:31AM 40.6025 -76.9433 193° South 259 298 15,900  Level New York Center
06:32AM 40.5261 -76.9664 193° South 259 298 15,900  Level New York Center
06:33AM 40.4667 -76.9858 194° South 259 298 15,900 -60 Level New York Center
06:34AM 40.3906 -77.0089 193° South 259 298 15,800 -540 Descending New York Center
06:35AM 40.3289 -77.0306 195° South 259 298 14,900 -1,020 Descending New York Center
06:37AM 40.1667 -77.0833 194° South 259 298 12,600 -1,020 Descending Potomac TRACON
06:39AM 40.0514 -77.1038 191° South  Level FlightAware Approximate
06:40AM 39.9500 -77.1500 191° South 267 307 9,500  Level Potomac TRACON
06:41AM 39.8833 -77.1667 191° South 259 298 9,000 -720 Descending Potomac TRACON
06:42AM 39.8333 -77.2167 218° Southwest 251 289 8,300 -600 Descending Potomac TRACON
06:43AM 39.7667 -77.2500 201° Southwest 246 283 7,900 -660 Descending Potomac TRACON
06:44AM 39.7167 -77.2833 207° Southwest 249 287 7,100 -480 Descending Potomac TRACON
06:45AM 39.6500 -77.3167 201° Southwest 240 276 7,000 -420 Descending Potomac TRACON
06:45AM 39.6000 -77.3667 218° Southwest 240 276 6,400 -540 Descending Potomac TRACON
06:46AM 39.5333 -77.4000 201° Southwest 238 274 6,000 -240 Descending Potomac TRACON
06:47AM 39.4833 -77.4167 194° South 237 273 6,000 -540 Level Potomac TRACON
06:48AM 39.4167 -77.4333 191° South 251 289 5,000 -1,020 Descending Potomac TRACON
06:49AM 39.3500 -77.4333 180° South 247 284 4,100 -540 Descending Potomac TRACON
06:50AM 39.2833 -77.4333 180° South 232 267 4,000 -600 Descending Potomac TRACON
06:51AM 39.2167 -77.4333 180° South 260 299 3,000 -540 Descending Potomac TRACON
06:52AM 39.1500 -77.4333 180° South 252 290 3,000 -120 Level Potomac TRACON
06:53AM 39.0833 -77.4333 180° South 241 277 2,800 -720 Descending Potomac TRACON
06:54AM 39.0333 -77.4333 180° South 196 226 1,700 -900 Descending Potomac TRACON
06:55AM 38.9833 -77.4333 180° South 123 142 1,000 -720 Descending Potomac TRACON
06:57AM 38.9474 -77.4599 180° South  Level Estimated
07:04AM 38.9474 -77.4599 349° North  Level Estimated
07:05AM 38.9474 -77.4599 349° North  Level Estimated
07:06AM 38.9474 -77.4599 349° North  Level Estimated